createdAt,value
2023-02-22T00:01:36.143Z,3.40
2023-02-22T00:04:10.779Z,3.57
2023-02-22T00:06:40.279Z,3.27
2023-02-22T00:09:10.161Z,2.87
2023-02-22T00:11:40.302Z,3.30
2023-02-22T00:14:09.292Z,3.23
2023-02-22T00:16:38.231Z,2.37
2023-02-22T00:19:08.737Z,2.63
2023-02-22T00:21:37.941Z,2.90
2023-02-22T00:24:23.228Z,2.40
2023-02-22T00:26:55.595Z,2.60
2023-02-22T00:29:26.262Z,3.20
2023-02-22T00:31:55.999Z,2.70
2023-02-22T00:34:27.864Z,2.90
2023-02-22T00:36:57.196Z,2.63
2023-02-22T00:39:26.565Z,2.97
2023-02-22T00:41:56.888Z,2.67
2023-02-22T00:44:26.342Z,2.50
2023-02-22T00:46:55.668Z,2.70
2023-02-22T00:49:27.206Z,2.80
2023-02-22T00:51:57.104Z,2.90
2023-02-22T00:54:26.674Z,2.93
2023-02-22T00:56:58.209Z,2.40
2023-02-22T00:59:27.869Z,2.60
2023-02-22T01:01:57.816Z,2.37
2023-02-22T01:04:28.802Z,2.60
2023-02-22T01:06:58.041Z,2.33
2023-02-22T01:09:28.458Z,2.30
2023-02-22T01:11:58.233Z,2.80
2023-02-22T01:14:30.196Z,2.33
2023-02-22T01:16:59.799Z,2.40
2023-02-22T01:19:30.171Z,2.40
2023-02-22T01:21:59.788Z,2.57
2023-02-22T01:24:29.786Z,2.37
2023-02-22T01:26:58.180Z,2.33
2023-02-22T01:29:28.651Z,1.97
2023-02-22T01:31:59.242Z,2.80
2023-02-22T01:34:31.732Z,2.97
2023-02-22T01:37:01.527Z,2.40
2023-02-22T01:39:31.895Z,2.27
2023-02-22T01:42:01.070Z,2.00
2023-02-22T01:44:34.665Z,2.10
2023-02-22T01:47:06.540Z,2.87
2023-02-22T01:49:43.329Z,2.87
2023-02-22T01:52:20.217Z,2.00
2023-02-22T01:54:56.592Z,2.60
2023-02-22T01:57:30.411Z,2.23
2023-02-22T02:00:11.718Z,2.20
2023-02-22T02:02:45.534Z,3.00
2023-02-22T02:05:17.437Z,2.80
2023-02-22T02:07:46.937Z,2.83
2023-02-22T02:10:16.866Z,2.33
2023-02-22T02:12:52.453Z,2.60
2023-02-22T02:15:26.140Z,2.20
2023-02-22T02:17:58.898Z,2.93
2023-02-22T02:20:39.230Z,2.07
2023-02-22T02:23:45.595Z,2.23
2023-02-22T02:27:04.760Z,2.17
2023-02-22T02:30:22.640Z,2.40
2023-02-22T02:33:16.889Z,2.37
2023-02-22T02:35:56.785Z,2.50
2023-02-22T02:38:38.914Z,2.57
2023-02-22T02:41:16.890Z,2.80
2023-02-22T02:43:55.147Z,1.97
2023-02-22T02:46:34.632Z,2.17
2023-02-22T02:49:12.378Z,2.17
2023-02-22T02:51:48.961Z,2.47
2023-02-22T02:54:21.613Z,2.40
2023-02-22T02:56:53.270Z,2.13
2023-02-22T02:59:46.481Z,2.80
2023-02-22T03:02:44.680Z,2.60
2023-02-22T03:05:41.958Z,2.30
2023-02-22T03:08:26.796Z,2.30
2023-02-22T03:11:05.764Z,2.33
2023-02-22T03:13:46.722Z,2.30
2023-02-22T03:16:24.733Z,1.80
2023-02-22T03:19:05.345Z,2.50
2023-02-22T03:21:48.649Z,2.90
2023-02-22T03:24:26.412Z,2.10
2023-02-22T03:27:05.649Z,2.47
2023-02-22T03:29:38.968Z,2.30
2023-02-22T03:32:16.912Z,2.07
2023-02-22T03:34:53.650Z,2.80
2023-02-22T03:37:30.622Z,2.33
2023-02-22T03:40:14.514Z,2.83
2023-02-22T03:42:50.586Z,2.50
2023-02-22T03:45:26.375Z,2.70
2023-02-22T03:48:06.868Z,2.90
2023-02-22T03:50:39.546Z,3.27
2023-02-22T03:53:11.214Z,2.87
2023-02-22T03:55:41.694Z,2.30
2023-02-22T03:58:15.882Z,2.50
2023-02-22T04:00:46.108Z,2.80
2023-02-22T04:03:14.798Z,2.40
2023-02-22T04:05:45.396Z,2.50
2023-02-22T04:08:16.309Z,2.50
2023-02-22T04:10:46.384Z,2.80
2023-02-22T04:13:15.763Z,2.10
2023-02-22T04:15:46.072Z,2.60
2023-02-22T04:18:16.624Z,2.00
2023-02-22T04:20:46.053Z,2.30
2023-02-22T04:23:18.105Z,2.80
2023-02-22T04:25:48.131Z,3.03
2023-02-22T04:28:18.169Z,2.23
2023-02-22T04:30:48.124Z,3.10
2023-02-22T04:33:17.787Z,2.60
2023-02-22T04:35:47.268Z,2.37
2023-02-22T04:38:19.358Z,3.03
2023-02-22T04:40:50.445Z,2.63
2023-02-22T04:43:20.154Z,2.70
2023-02-22T04:45:49.328Z,2.13
2023-02-22T04:48:19.574Z,3.90
2023-02-22T04:50:51.789Z,2.70
2023-02-22T04:53:24.354Z,2.40
2023-02-22T04:55:54.056Z,2.43
2023-02-22T04:58:23.925Z,2.93
2023-02-22T05:00:54.638Z,2.00
2023-02-22T05:03:24.119Z,2.57
2023-02-22T05:05:55.467Z,2.43
2023-02-22T05:08:25.727Z,2.57
2023-02-22T05:10:55.423Z,2.23
2023-02-22T05:13:24.917Z,2.47
2023-02-22T05:15:54.969Z,2.07
2023-02-22T05:18:24.889Z,2.60
2023-02-22T05:20:54.310Z,2.20
2023-02-22T05:23:25.227Z,2.50
2023-02-22T05:25:54.777Z,2.57
2023-02-22T05:28:24.872Z,2.40
2023-02-22T05:30:54.359Z,2.80
2023-02-22T05:33:24.341Z,2.07
2023-02-22T05:35:56.038Z,2.57
2023-02-22T05:38:27.158Z,2.70
2023-02-22T05:40:58.368Z,2.37
2023-02-22T05:43:28.616Z,2.70
2023-02-22T05:45:58.856Z,2.43
2023-02-22T05:48:28.887Z,2.53
2023-02-22T05:50:58.623Z,2.70
2023-02-22T05:53:30.012Z,2.27
2023-02-22T05:56:00.542Z,2.17
2023-02-22T05:58:30.252Z,2.13
2023-02-22T06:00:58.755Z,2.30
2023-02-22T06:03:28.301Z,2.23
2023-02-22T06:05:58.656Z,2.27
2023-02-22T06:08:30.095Z,1.90
2023-02-22T06:10:58.956Z,2.40
2023-02-22T06:13:28.456Z,2.20
2023-02-22T06:15:59.209Z,2.53
2023-02-22T06:18:30.978Z,4.80
2023-02-22T06:21:01.698Z,2.90
2023-02-22T06:23:33.599Z,2.00
2023-02-22T06:26:03.398Z,2.53
2023-02-22T06:28:33.145Z,2.30
2023-02-22T06:31:03.117Z,1.93
2023-02-22T06:33:32.703Z,2.50
2023-02-22T06:36:02.541Z,2.43
2023-02-22T06:38:35.143Z,2.63
2023-02-22T06:41:04.155Z,2.53
2023-02-22T06:43:35.020Z,2.00
2023-02-22T06:46:05.052Z,2.53
2023-02-22T06:48:38.993Z,2.87
2023-02-22T06:51:10.053Z,2.03
2023-02-22T06:53:42.243Z,2.17
2023-02-22T06:56:12.454Z,2.87
2023-02-22T06:58:42.381Z,2.90
2023-02-22T07:01:12.576Z,1.93
2023-02-22T07:03:43.775Z,2.30
2023-02-22T07:06:13.344Z,2.17
2023-02-22T07:08:45.032Z,2.17
2023-02-22T07:11:16.288Z,2.03
2023-02-22T07:13:46.192Z,2.43
2023-02-22T07:16:15.841Z,2.23
2023-02-22T07:18:45.459Z,3.20
2023-02-22T07:21:15.800Z,2.70
2023-02-22T07:23:53.978Z,2.43
2023-02-22T07:26:23.778Z,2.83
2023-02-22T07:28:54.249Z,2.33
2023-02-22T07:31:24.714Z,2.67
2023-02-22T07:33:55.248Z,2.40
2023-02-22T07:36:26.073Z,2.90
2023-02-22T07:38:56.892Z,2.10
2023-02-22T07:41:27.151Z,2.33
2023-02-22T07:43:57.025Z,2.53
2023-02-22T07:46:26.953Z,2.87
2023-02-22T07:48:57.017Z,2.93
2023-02-22T07:51:27.661Z,2.27
2023-02-22T07:53:59.632Z,2.67
2023-02-22T07:56:29.516Z,2.70
2023-02-22T07:58:58.507Z,3.20
2023-02-22T08:01:27.889Z,2.67
2023-02-22T08:03:57.322Z,2.73
2023-02-22T08:06:28.908Z,2.50
2023-02-22T08:08:59.399Z,2.10
2023-02-22T08:11:29.691Z,2.60
2023-02-22T08:13:59.649Z,3.20
2023-02-22T08:16:29.560Z,3.50
2023-02-22T08:18:59.460Z,3.17
2023-02-22T08:21:30.416Z,3.23
2023-02-22T08:24:02.340Z,3.77
2023-02-22T08:26:32.808Z,3.03
2023-02-22T08:29:02.766Z,2.93
2023-02-22T08:31:32.849Z,3.27
2023-02-22T08:34:02.943Z,3.10
2023-02-22T08:36:35.055Z,3.40
2023-02-22T08:39:05.444Z,3.20
2023-02-22T08:41:35.475Z,3.40
2023-02-22T08:44:04.953Z,3.03
2023-02-22T08:46:35.981Z,2.90
2023-02-22T08:49:07.169Z,2.90
2023-02-22T08:51:38.677Z,3.00
2023-02-22T08:54:09.996Z,3.17
2023-02-22T08:56:39.926Z,3.80
2023-02-22T08:59:09.230Z,3.10
2023-02-22T09:01:39.374Z,3.80
2023-02-22T09:04:08.611Z,3.50
2023-02-22T09:06:38.312Z,2.73
2023-02-22T09:09:09.950Z,3.30
2023-02-22T09:11:38.883Z,3.60
2023-02-22T09:14:09.557Z,3.43
2023-02-22T09:16:39.681Z,3.77
2023-02-22T09:19:09.120Z,4.30
2023-02-22T09:21:40.810Z,3.77
2023-02-22T09:24:11.182Z,3.47
2023-02-22T09:26:43.179Z,3.63
2023-02-22T09:29:13.790Z,4.00
2023-02-22T09:31:44.159Z,3.57
2023-02-22T09:34:16.044Z,2.90
2023-02-22T09:36:47.226Z,3.47
2023-02-22T09:39:19.387Z,3.67
2023-02-22T09:42:03.177Z,4.10
2023-02-22T09:44:42.601Z,3.27
2023-02-22T09:47:19.165Z,2.80
2023-02-22T09:50:03.071Z,3.27
2023-02-22T09:52:41.576Z,3.70
2023-02-22T09:55:31.554Z,3.63
2023-02-22T09:58:05.114Z,3.33
2023-02-22T10:00:39.025Z,3.90
2023-02-22T10:03:25.791Z,4.10
2023-02-22T10:06:03.253Z,3.50
2023-02-22T10:08:35.758Z,3.80
2023-02-22T10:11:26.325Z,3.53
2023-02-22T10:14:07.813Z,3.57
2023-02-22T10:16:47.527Z,3.30
2023-02-22T10:19:32.677Z,3.60
2023-02-22T10:22:28.359Z,3.60
2023-02-22T10:25:05.417Z,3.67
2023-02-22T10:27:42.028Z,3.70
2023-02-22T10:30:25.433Z,3.20
2023-02-22T10:33:07.742Z,3.30
2023-02-22T10:35:41.920Z,3.10
2023-02-22T10:38:20.322Z,4.77
2023-02-22T10:40:57.961Z,5.10
2023-02-22T10:43:29.267Z,4.80
2023-02-22T10:46:04.832Z,6.00
2023-02-22T10:48:41.916Z,5.80
2023-02-22T10:51:14.009Z,5.77
2023-02-22T10:53:43.936Z,7.43
2023-02-22T10:56:20.601Z,9.20
2023-02-22T10:58:57.604Z,9.83
2023-02-22T11:01:35.938Z,10.43
2023-02-22T11:04:14.276Z,9.50
2023-02-22T11:06:47.224Z,9.30
2023-02-22T11:09:18.501Z,10.80
2023-02-22T11:11:50.482Z,10.87
2023-02-22T11:14:32.014Z,10.23
2023-02-22T11:17:07.569Z,10.03
2023-02-22T11:19:39.005Z,8.83
2023-02-22T11:22:16.412Z,10.03
2023-02-22T11:27:32.620Z,10.47
2023-02-22T11:30:23.040Z,10.77
2023-02-22T11:32:58.499Z,10.40
2023-02-22T11:35:40.872Z,9.30
2023-02-22T11:38:21.057Z,9.23
2023-02-22T11:41:14.669Z,9.57
2023-02-22T11:43:45.572Z,10.00
2023-02-22T11:46:20.645Z,10.50
2023-02-22T11:49:02.699Z,9.27
2023-02-22T11:51:48.268Z,9.10
2023-02-22T11:55:10.746Z,9.33
2023-02-22T11:58:02.171Z,9.50
2023-02-22T12:00:46.788Z,9.37
2023-02-22T12:04:06.008Z,9.53
2023-02-22T12:06:48.757Z,9.43
2023-02-22T12:09:27.281Z,9.43
2023-02-22T12:12:16.316Z,8.10
2023-02-22T12:15:00.276Z,8.90
2023-02-22T12:17:59.311Z,8.97
2023-02-22T12:20:37.805Z,9.53
2023-02-22T12:23:19.683Z,9.57
2023-02-22T12:26:00.047Z,9.27
2023-02-22T12:28:38.345Z,9.43
2023-02-22T12:31:21.082Z,9.57
2023-02-22T12:34:02.049Z,10.70
2023-02-22T12:36:43.678Z,9.87
2023-02-22T12:39:47.122Z,9.70
2023-02-22T12:42:30.806Z,9.00
2023-02-22T12:45:09.271Z,9.67
2023-02-22T12:47:50.332Z,9.30
2023-02-22T12:50:26.706Z,9.90
2023-02-22T12:53:10.645Z,10.43
2023-02-22T12:55:49.272Z,8.67
2023-02-22T12:58:29.038Z,9.03
2023-02-22T13:01:07.331Z,9.93
2023-02-22T13:03:40.344Z,9.40
2023-02-22T13:06:42.974Z,8.23
2023-02-22T13:09:51.789Z,9.60
2023-02-22T13:12:29.798Z,10.40
2023-02-22T13:15:13.755Z,10.70
2023-02-22T13:17:55.482Z,10.70
2023-02-22T13:20:32.756Z,9.70
2023-02-22T13:23:12.920Z,10.90
2023-02-22T13:25:55.271Z,11.13
2023-02-22T13:28:34.225Z,11.03
2023-02-22T13:31:24.594Z,9.93
2023-02-22T13:34:19.002Z,10.23
2023-02-22T13:37:12.449Z,10.53
2023-02-22T13:40:16.894Z,9.93
2023-02-22T13:43:44.109Z,9.90
2023-02-22T13:47:13.758Z,10.77
2023-02-22T13:50:10.178Z,10.57
2023-02-22T13:52:43.140Z,11.60
2023-02-22T13:55:23.551Z,11.07
2023-02-22T13:58:04.284Z,11.97
2023-02-22T14:00:52.733Z,10.63
2023-02-22T14:03:40.739Z,12.37
2023-02-22T14:06:32.394Z,10.80
2023-02-22T14:09:08.716Z,11.70
2023-02-22T14:11:47.925Z,11.67
2023-02-22T14:14:19.246Z,11.53
2023-02-22T14:17:26.303Z,10.90
2023-02-22T14:20:30.598Z,11.37
2023-02-22T14:23:31.659Z,11.20
2023-02-22T14:26:15.274Z,11.10
2023-02-22T14:28:54.933Z,11.37
2023-02-22T14:31:36.469Z,11.47
2023-02-22T14:34:11.855Z,11.77
2023-02-22T14:36:53.843Z,11.13
2023-02-22T14:39:33.580Z,11.00
2023-02-22T14:42:09.257Z,12.40
2023-02-22T14:44:47.711Z,9.90
2023-02-22T14:47:22.874Z,10.53
2023-02-22T14:49:56.911Z,10.70
2023-02-22T14:52:28.985Z,11.00
2023-02-22T14:55:10.233Z,11.90
2023-02-22T14:57:55.375Z,11.83
2023-02-22T15:00:31.848Z,10.77
2023-02-22T15:03:02.470Z,12.40
2023-02-22T15:05:42.210Z,11.97
2023-02-22T15:08:17.706Z,13.03
2023-02-22T15:10:48.642Z,12.97
2023-02-22T15:13:24.421Z,12.20
2023-02-22T15:16:01.844Z,11.70
2023-02-22T15:18:38.509Z,11.23
2023-02-22T15:21:16.427Z,12.13
2023-02-22T15:23:50.528Z,11.23
2023-02-22T15:26:24.717Z,11.77
2023-02-22T15:28:57.230Z,11.90
2023-02-22T15:31:32.784Z,12.27
2023-02-22T15:34:24.236Z,12.20
2023-02-22T15:36:58.197Z,12.63
2023-02-22T15:39:29.979Z,12.80
2023-02-22T15:42:10.343Z,12.40
2023-02-22T15:44:43.947Z,44.87
2023-02-22T15:47:19.022Z,50.93
2023-02-22T15:50:08.963Z,22.60
2023-02-22T15:52:40.021Z,14.67
2023-02-22T15:55:13.074Z,13.60
2023-02-22T15:57:42.438Z,13.43
2023-02-22T16:00:31.248Z,56.87
2023-02-22T16:03:01.807Z,16.87
2023-02-22T16:05:41.676Z,14.67
2023-02-22T16:08:25.717Z,15.87
2023-02-22T16:11:02.632Z,14.30
2023-02-22T16:13:36.204Z,14.77
2023-02-22T16:16:23.374Z,12.20
2023-02-22T16:18:54.033Z,14.37
2023-02-22T16:21:24.266Z,15.10
2023-02-22T16:24:10.257Z,15.97
2023-02-22T16:27:04.561Z,15.17
2023-02-22T16:29:33.592Z,13.80
2023-02-22T16:32:04.058Z,14.13
2023-02-22T16:34:32.988Z,14.17
2023-02-22T16:37:02.566Z,15.50
2023-02-22T16:39:36.892Z,14.87
2023-02-22T16:42:10.526Z,14.70
2023-02-22T16:44:40.518Z,15.40
2023-02-22T16:47:13.636Z,15.80
2023-02-22T16:49:44.236Z,15.13
2023-02-22T16:52:14.384Z,14.97
2023-02-22T16:54:47.877Z,14.13
2023-02-22T16:57:23.830Z,14.23
2023-02-22T16:59:56.019Z,15.37
2023-02-22T17:02:26.344Z,14.93
2023-02-22T17:04:56.899Z,13.50
2023-02-22T17:07:31.419Z,13.10
2023-02-22T17:10:02.563Z,13.70
2023-02-22T17:12:32.838Z,13.80
2023-02-22T17:15:03.582Z,13.00
2023-02-22T17:17:33.850Z,13.47
2023-02-22T17:20:10.896Z,13.80
2023-02-22T17:22:40.401Z,13.67
2023-02-22T17:25:29.635Z,14.40
2023-02-22T17:27:59.045Z,14.50
2023-02-22T17:30:28.636Z,14.70
2023-02-22T17:33:04.279Z,13.80
2023-02-22T17:35:37.151Z,14.90
2023-02-22T17:38:07.748Z,14.63
2023-02-22T17:40:40.947Z,15.40
2023-02-22T17:43:09.902Z,13.83
2023-02-22T17:45:42.026Z,14.70
2023-02-22T17:48:12.569Z,15.30
2023-02-22T17:50:44.158Z,15.00
2023-02-22T17:53:14.135Z,35.50
2023-02-22T17:55:45.908Z,17.03
2023-02-22T17:58:15.782Z,15.73
2023-02-22T18:00:48.391Z,16.80
2023-02-22T18:03:26.108Z,28.73
2023-02-22T18:05:58.908Z,16.80
2023-02-22T18:08:30.616Z,15.03
2023-02-22T18:11:05.622Z,16.17
2023-02-22T18:13:35.358Z,14.17
2023-02-22T18:16:06.157Z,13.57
2023-02-22T18:18:36.403Z,14.60
2023-02-22T18:21:06.462Z,13.50
2023-02-22T18:23:36.506Z,13.03
2023-02-22T18:26:23.345Z,11.90
2023-02-22T18:28:54.193Z,14.57
2023-02-22T18:31:24.722Z,14.40
2023-02-22T18:33:54.398Z,13.67
2023-02-22T18:36:23.973Z,14.10
2023-02-22T18:38:54.977Z,14.40
2023-02-22T18:41:29.117Z,14.33
2023-02-22T18:44:01.300Z,25.90
2023-02-22T18:46:31.207Z,14.03
2023-02-22T18:49:01.010Z,14.50
2023-02-22T18:51:30.395Z,12.63
2023-02-22T18:54:01.166Z,15.33
2023-02-22T18:56:34.644Z,15.13
2023-02-22T18:59:07.219Z,14.23
2023-02-22T19:01:39.677Z,13.60
2023-02-22T19:04:12.624Z,14.00
2023-02-22T19:06:43.265Z,13.43
2023-02-22T19:09:12.733Z,13.80
2023-02-22T19:11:46.621Z,13.53
2023-02-22T19:14:16.537Z,18.37
2023-02-22T19:16:47.155Z,16.90
2023-02-22T19:19:20.738Z,14.10
2023-02-22T19:21:51.775Z,14.20
2023-02-22T19:24:21.456Z,15.37
2023-02-22T19:26:57.282Z,13.87
2023-02-22T19:29:26.372Z,13.70
2023-02-22T19:31:57.457Z,13.20
2023-02-22T19:34:27.985Z,14.37
2023-02-22T19:37:00.608Z,14.00
2023-02-22T19:39:30.474Z,14.40
2023-02-22T19:42:02.225Z,13.90
2023-02-22T19:44:31.820Z,12.53
2023-02-22T19:47:02.037Z,12.53
2023-02-22T19:49:30.482Z,14.23
2023-02-22T19:51:59.226Z,14.70
2023-02-22T19:54:29.134Z,13.37
2023-02-22T19:56:58.870Z,13.60
2023-02-22T19:59:30.324Z,12.90
2023-02-22T20:02:00.189Z,13.40
2023-02-22T20:04:31.280Z,14.80
2023-02-22T20:07:00.958Z,12.80
2023-02-22T20:09:36.984Z,14.70
2023-02-22T20:12:07.938Z,14.40
2023-02-22T20:14:38.889Z,15.17
2023-02-22T20:17:10.891Z,13.83
2023-02-22T20:19:40.878Z,14.80
2023-02-22T20:22:10.101Z,15.73
2023-02-22T20:24:39.320Z,15.13
2023-02-22T20:27:09.203Z,14.50
2023-02-22T20:29:40.678Z,15.00
2023-02-22T20:32:16.029Z,14.23
2023-02-22T20:34:47.918Z,14.00
2023-02-22T20:37:18.848Z,13.90
2023-02-22T20:39:48.178Z,15.17
2023-02-22T20:42:17.355Z,12.80
2023-02-22T20:44:48.021Z,15.07
2023-02-22T20:47:16.929Z,13.80
2023-02-22T20:49:47.044Z,16.10
2023-02-22T20:52:16.110Z,14.10
2023-02-22T20:54:45.940Z,14.60
2023-02-22T20:57:15.392Z,14.97
2023-02-22T20:59:45.081Z,15.20
2023-02-22T21:02:16.379Z,15.17
2023-02-22T21:04:46.994Z,15.90
2023-02-22T21:07:15.937Z,15.30
2023-02-22T21:09:46.777Z,15.40
2023-02-22T21:12:16.399Z,15.37
2023-02-22T21:14:46.729Z,14.93
2023-02-22T21:17:22.166Z,15.57
2023-02-22T21:19:51.664Z,15.13
2023-02-22T21:22:21.745Z,16.30
2023-02-22T21:24:51.778Z,15.90
2023-02-22T21:27:20.882Z,18.57
2023-02-22T21:29:50.739Z,16.87
2023-02-22T21:32:21.442Z,15.17
2023-02-22T21:34:51.274Z,15.87
2023-02-22T21:37:21.024Z,14.90
2023-02-22T21:39:51.211Z,17.57
2023-02-22T21:42:21.182Z,17.13
2023-02-22T21:44:54.983Z,15.73
2023-02-22T21:47:25.846Z,13.83
2023-02-22T21:49:54.808Z,14.43
2023-02-22T21:52:26.380Z,15.77
2023-02-22T21:54:56.076Z,18.53
2023-02-22T21:57:26.783Z,14.23
2023-02-22T21:59:55.586Z,13.67
2023-02-22T22:02:26.393Z,15.27
2023-02-22T22:04:56.321Z,18.03
2023-02-22T22:07:24.696Z,17.27
2023-02-22T22:09:56.566Z,15.10
2023-02-22T22:12:37.542Z,14.67
2023-02-22T22:15:10.950Z,15.77
2023-02-22T22:17:42.709Z,14.47
2023-02-22T22:20:16.262Z,14.50
2023-02-22T22:22:46.997Z,15.37
2023-02-22T22:25:17.458Z,13.00
2023-02-22T22:27:47.098Z,13.57
2023-02-22T22:30:17.631Z,12.63
2023-02-22T22:32:49.011Z,13.73
2023-02-22T22:35:18.190Z,14.83
2023-02-22T22:37:51.187Z,14.27
2023-02-22T22:40:21.699Z,14.00
2023-02-22T22:42:50.615Z,12.43
2023-02-22T22:45:20.016Z,13.23
2023-02-22T22:47:52.808Z,12.93
2023-02-22T22:50:26.503Z,14.27
2023-02-22T22:52:56.314Z,13.30
2023-02-22T22:55:25.379Z,13.30
2023-02-22T22:57:55.238Z,14.73
2023-02-22T23:00:32.723Z,13.57
2023-02-22T23:03:05.972Z,13.43
2023-02-22T23:05:39.628Z,14.70
2023-02-22T23:08:10.952Z,13.40
2023-02-22T23:10:41.497Z,14.40
2023-02-22T23:13:15.641Z,13.03
2023-02-22T23:15:48.202Z,13.70
2023-02-22T23:18:21.037Z,13.40
2023-02-22T23:20:55.227Z,13.83
2023-02-22T23:23:27.686Z,15.80
2023-02-22T23:26:27.120Z,13.83
2023-02-22T23:29:00.122Z,13.50
2023-02-22T23:31:29.869Z,13.13
2023-02-22T23:34:01.301Z,13.90
2023-02-22T23:36:30.277Z,12.50
2023-02-22T23:39:00.123Z,13.83
2023-02-22T23:41:30.412Z,13.23
2023-02-22T23:44:00.913Z,14.10
2023-02-22T23:46:32.916Z,13.10
2023-02-22T23:49:06.066Z,13.70
2023-02-22T23:51:39.845Z,12.53
2023-02-22T23:54:12.357Z,12.70
2023-02-22T23:56:47.701Z,12.57
2023-02-22T23:59:17.064Z,12.47
